createdAt,value
2022-08-09T00:00:23.430Z,5.97
2022-08-09T00:02:51.876Z,5.63
2022-08-09T00:06:18.225Z,6.57
2022-08-09T00:08:11.479Z,7.20
2022-08-09T00:10:40.791Z,6.30
2022-08-09T00:13:16.706Z,6.13
2022-08-09T00:15:59.583Z,5.33
2022-08-09T00:18:34.876Z,4.13
2022-08-09T00:21:05.000Z,3.40
2022-08-09T00:23:56.724Z,4.63
2022-08-09T00:26:20.248Z,4.70
2022-08-09T00:28:58.516Z,3.73
2022-08-09T00:32:00.055Z,3.30
2022-08-09T00:34:14.006Z,3.73
2022-08-09T00:36:42.122Z,2.93
2022-08-09T00:39:17.025Z,4.30
2022-08-09T00:44:16.464Z,3.00
2022-08-09T00:44:47.042Z,4.10
2022-08-09T00:47:15.569Z,5.53
2022-08-09T00:49:43.692Z,5.50
2022-08-09T00:52:20.414Z,4.90
2022-08-09T00:54:48.943Z,5.10
2022-08-09T00:57:24.699Z,5.73
2022-08-09T01:00:22.128Z,5.27
2022-08-09T01:02:58.050Z,7.00
2022-08-09T01:05:51.986Z,5.50
2022-08-09T01:08:28.116Z,6.40
2022-08-09T01:11:36.086Z,5.70
2022-08-09T01:14:39.086Z,6.00
2022-08-09T01:17:19.367Z,5.93
2022-08-09T01:20:02.351Z,6.60
2022-08-09T01:24:01.012Z,6.43
2022-08-09T01:26:18.463Z,5.87
2022-08-09T01:28:50.355Z,6.53
2022-08-09T01:32:28.133Z,6.53
2022-08-09T01:34:13.154Z,5.93
2022-08-09T01:36:46.410Z,6.20
2022-08-09T01:39:16.595Z,5.80
2022-08-09T01:41:53.489Z,5.50
2022-08-09T01:44:25.186Z,5.40
2022-08-09T01:46:53.114Z,6.00
2022-08-09T01:49:24.325Z,6.40
2022-08-09T01:51:55.110Z,7.63
2022-08-09T01:54:35.731Z,9.60
2022-08-09T01:57:14.787Z,7.97
2022-08-09T01:59:51.045Z,7.30
2022-08-09T02:02:30.933Z,8.13
2022-08-09T02:05:11.868Z,9.30
2022-08-09T02:08:40.365Z,8.97
2022-08-09T02:10:51.223Z,10.90
2022-08-09T02:13:21.974Z,10.03
2022-08-09T02:15:56.454Z,11.10
2022-08-09T02:18:27.881Z,9.10
2022-08-09T02:21:06.025Z,8.90
2022-08-09T02:23:42.767Z,9.57
2022-08-09T02:26:25.065Z,8.23
2022-08-09T02:28:59.851Z,8.90
2022-08-09T02:31:43.250Z,8.37
2022-08-09T02:34:40.712Z,7.77
2022-08-09T02:37:12.278Z,7.43
2022-08-09T02:39:45.344Z,7.03
2022-08-09T02:42:24.800Z,6.23
2022-08-09T02:45:02.311Z,5.83
2022-08-09T02:47:33.990Z,5.87
2022-08-09T02:50:26.905Z,6.10
2022-08-09T02:53:02.776Z,6.60
2022-08-09T02:55:46.289Z,5.90
2022-08-09T02:58:35.701Z,6.03
2022-08-09T03:01:08.012Z,6.37
2022-08-09T03:04:17.414Z,4.70
2022-08-09T03:06:29.019Z,5.40
2022-08-09T03:08:57.288Z,5.50
2022-08-09T03:12:05.204Z,5.13
2022-08-09T03:14:13.228Z,4.60
2022-08-09T03:16:47.431Z,5.00
2022-08-09T03:19:58.405Z,6.00
2022-08-09T03:22:12.484Z,5.70
2022-08-09T03:25:06.402Z,5.83
2022-08-09T03:27:44.629Z,6.40
2022-08-09T03:30:28.132Z,6.40
2022-08-09T03:32:58.731Z,6.17
2022-08-09T03:35:44.335Z,6.00
2022-08-09T03:38:16.060Z,5.73
2022-08-09T03:40:56.454Z,6.37
2022-08-09T03:43:23.552Z,5.93
2022-08-09T03:46:13.635Z,5.03
2022-08-09T03:48:42.969Z,7.07
2022-08-09T03:51:57.325Z,7.63
2022-08-09T03:54:11.437Z,5.97
2022-08-09T03:56:41.263Z,7.13
2022-08-09T03:59:17.041Z,7.73
2022-08-09T04:01:50.186Z,6.17
2022-08-09T04:04:19.991Z,6.83
2022-08-09T04:06:49.275Z,6.40
2022-08-09T04:09:48.234Z,5.70
2022-08-09T04:12:11.989Z,5.27
2022-08-09T04:15:01.798Z,5.90
2022-08-09T04:17:30.251Z,4.67
2022-08-09T04:19:58.877Z,4.80
2022-08-09T04:22:30.189Z,5.30
2022-08-09T04:24:59.082Z,4.10
2022-08-09T04:27:26.098Z,3.80
2022-08-09T04:29:56.829Z,4.90
2022-08-09T04:32:33.762Z,3.90
2022-08-09T04:35:09.078Z,4.23
2022-08-09T04:37:45.618Z,4.90
2022-08-09T04:40:19.166Z,4.60
2022-08-09T04:42:48.571Z,4.87
2022-08-09T04:45:20.417Z,3.73
2022-08-09T04:48:01.185Z,3.30
2022-08-09T04:50:34.819Z,3.30
2022-08-09T04:53:02.718Z,3.73
2022-08-09T04:55:35.371Z,4.43
2022-08-09T04:58:09.924Z,3.83
2022-08-09T05:00:37.292Z,3.80
2022-08-09T05:03:30.617Z,3.90
2022-08-09T05:06:07.065Z,4.30
2022-08-09T05:08:35.352Z,7.20
2022-08-09T05:11:03.470Z,6.50
2022-08-09T05:13:38.728Z,4.20
2022-08-09T05:16:08.007Z,4.23
2022-08-09T05:18:37.444Z,3.67
2022-08-09T05:21:10.069Z,4.20
2022-08-09T05:23:55.372Z,8.47
2022-08-09T05:26:36.890Z,8.83
2022-08-09T05:29:17.231Z,7.87
2022-08-09T05:31:56.392Z,7.10
2022-08-09T05:34:30.830Z,8.70
2022-08-09T05:37:06.595Z,13.53
2022-08-09T05:39:43.451Z,9.43
2022-08-09T05:42:20.910Z,9.10
2022-08-09T05:45:01.221Z,10.33
2022-08-09T05:47:30.168Z,9.60
2022-08-09T05:50:24.418Z,9.93
2022-08-09T05:52:53.683Z,8.43
2022-08-09T05:55:24.084Z,6.17
2022-08-09T05:57:57.053Z,5.70
2022-08-09T06:00:28.619Z,5.73
2022-08-09T06:03:00.995Z,6.07
2022-08-09T06:05:58.179Z,4.20
2022-08-09T06:08:24.722Z,5.20
2022-08-09T06:10:58.245Z,4.40
2022-08-09T06:13:28.542Z,5.50
2022-08-09T06:16:04.943Z,6.23
2022-08-09T06:18:32.819Z,18.40
2022-08-09T06:21:01.574Z,13.30
2022-08-09T06:23:57.433Z,6.47
2022-08-09T06:26:20.777Z,5.53
2022-08-09T06:29:00.282Z,9.70
2022-08-09T06:31:31.008Z,4.47
2022-08-09T06:33:58.957Z,3.27
2022-08-09T06:36:27.003Z,3.07
2022-08-09T06:38:54.781Z,3.67
2022-08-09T06:42:07.479Z,3.53
2022-08-09T06:44:18.193Z,5.60
2022-08-09T06:46:48.142Z,6.73
2022-08-09T06:49:29.213Z,3.57
2022-08-09T06:52:05.471Z,3.70
2022-08-09T06:54:34.906Z,3.50
2022-08-09T06:57:02.013Z,3.87
2022-08-09T07:00:50.914Z,3.67
2022-08-09T07:02:16.758Z,3.57
2022-08-09T07:04:43.813Z,4.20
2022-08-09T07:07:12.223Z,2.90
2022-08-09T07:10:01.223Z,2.47
2022-08-09T07:12:43.167Z,2.37
2022-08-09T07:16:39.013Z,2.47
2022-08-09T07:18:02.591Z,2.37
2022-08-09T07:20:30.420Z,2.50
2022-08-09T07:22:58.492Z,2.83
2022-08-09T07:25:26.444Z,2.67
2022-08-09T07:27:56.110Z,2.30
2022-08-09T07:30:24.351Z,2.10
2022-08-09T07:32:52.454Z,2.37
2022-08-09T07:35:19.636Z,2.53
2022-08-09T07:37:48.098Z,2.07
2022-08-09T07:40:20.761Z,1.87
2022-08-09T07:43:00.036Z,1.93
2022-08-09T07:45:39.983Z,2.87
2022-08-09T07:48:25.359Z,1.90
2022-08-09T07:51:09.728Z,2.00
2022-08-09T07:54:05.567Z,1.93
2022-08-09T07:56:36.908Z,2.23
2022-08-09T07:59:12.577Z,3.00
2022-08-09T08:01:43.306Z,1.80
2022-08-09T08:04:20.410Z,1.60
2022-08-09T08:07:00.198Z,1.80
2022-08-09T08:09:41.118Z,1.60
2022-08-09T08:12:27.646Z,1.93
2022-08-09T08:14:57.032Z,2.33
2022-08-09T08:17:35.155Z,1.83
2022-08-09T08:20:12.536Z,1.73
2022-08-09T08:22:40.521Z,1.70
2022-08-09T08:25:09.514Z,1.83
2022-08-09T08:27:43.051Z,1.70
2022-08-09T08:30:11.936Z,1.00
2022-08-09T08:32:52.754Z,1.13
2022-08-09T08:35:22.364Z,1.40
2022-08-09T08:37:59.890Z,1.30
2022-08-09T08:40:33.735Z,1.23
2022-08-09T08:43:13.398Z,1.57
2022-08-09T08:45:53.408Z,1.57
2022-08-09T08:48:23.146Z,1.37
2022-08-09T08:50:57.559Z,1.37
2022-08-09T08:53:32.203Z,1.70
2022-08-09T08:56:05.416Z,1.30
2022-08-09T08:58:36.055Z,1.40
2022-08-09T09:01:08.660Z,1.03
2022-08-09T09:03:38.234Z,1.10
2022-08-09T09:06:07.932Z,1.50
2022-08-09T09:08:40.846Z,2.07
2022-08-09T09:11:17.907Z,2.17
2022-08-09T09:13:56.768Z,1.10
2022-08-09T09:16:35.124Z,1.00
2022-08-09T09:22:12.569Z,1.60
2022-08-09T09:24:45.347Z,1.30
2022-08-09T09:28:06.896Z,1.53
2022-08-09T09:30:39.785Z,1.30
2022-08-09T09:33:15.757Z,1.57
2022-08-09T09:36:00.598Z,1.83
2022-08-09T09:38:57.259Z,1.70
2022-08-09T09:41:26.150Z,1.13
2022-08-09T09:44:11.832Z,1.30
2022-08-09T09:46:50.369Z,1.23
2022-08-09T09:49:49.715Z,1.63
2022-08-09T09:52:16.375Z,1.87
2022-08-09T09:55:27.851Z,1.60
2022-08-09T09:58:17.295Z,1.70
2022-08-09T10:00:59.197Z,1.47
2022-08-09T10:03:56.350Z,1.80
2022-08-09T10:06:26.219Z,1.83
2022-08-09T10:09:02.981Z,1.20
2022-08-09T10:11:54.315Z,1.33
2022-08-09T10:14:33.005Z,1.90
2022-08-09T10:17:51.253Z,1.20
2022-08-09T10:20:01.992Z,1.50
2022-08-09T10:22:34.567Z,1.77
2022-08-09T10:25:11.107Z,2.37
2022-08-09T10:27:45.098Z,1.50
2022-08-09T10:32:13.660Z,1.77
2022-08-09T10:34:05.001Z,1.40
2022-08-09T10:36:02.382Z,1.23
2022-08-09T10:38:55.509Z,1.97
2022-08-09T10:41:20.533Z,1.77
2022-08-09T10:43:53.868Z,1.80
2022-08-09T10:47:00.685Z,1.20
2022-08-09T10:49:54.285Z,1.20
2022-08-09T10:52:53.940Z,1.67
2022-08-09T10:55:22.657Z,1.20
2022-08-09T10:57:51.694Z,1.20
2022-08-09T11:00:31.492Z,1.10
2022-08-09T11:03:11.917Z,1.20
2022-08-09T11:06:23.197Z,1.77
2022-08-09T11:08:51.227Z,1.30
2022-08-09T11:11:22.992Z,2.07
2022-08-09T11:14:38.994Z,1.43
2022-08-09T11:17:19.380Z,1.37
2022-08-09T11:20:19.910Z,1.40
2022-08-09T11:22:55.391Z,2.93
2022-08-09T11:25:46.087Z,1.37
2022-08-09T11:28:54.164Z,1.30
2022-08-09T11:31:50.461Z,1.67
2022-08-09T11:34:36.426Z,1.40
2022-08-09T11:37:07.506Z,1.60
2022-08-09T11:40:05.967Z,1.40
2022-08-09T11:42:48.787Z,1.60
2022-08-09T11:45:42.527Z,1.37
2022-08-09T11:48:26.112Z,1.57
2022-08-09T11:51:37.965Z,1.80
2022-08-09T11:54:00.491Z,1.73
2022-08-09T11:56:47.576Z,1.73
2022-08-09T11:59:29.819Z,1.40
2022-08-09T12:02:16.264Z,1.10
2022-08-09T12:04:47.847Z,1.67
2022-08-09T12:07:27.960Z,1.63
2022-08-09T12:10:02.501Z,1.30
2022-08-09T12:12:32.056Z,1.57
2022-08-09T12:15:07.697Z,1.70
2022-08-09T12:17:43.655Z,1.50
2022-08-09T12:20:21.821Z,1.30
2022-08-09T12:22:56.434Z,1.50
2022-08-09T12:25:37.681Z,1.20
2022-08-09T12:29:13.078Z,1.60
2022-08-09T12:31:00.790Z,1.70
2022-08-09T12:33:51.503Z,1.73
2022-08-09T12:36:31.776Z,1.60
2022-08-09T12:39:01.040Z,1.40
2022-08-09T12:41:38.977Z,1.37
2022-08-09T12:44:10.372Z,1.47
2022-08-09T12:46:49.004Z,1.60
2022-08-09T12:49:18.277Z,1.57
2022-08-09T12:52:00.807Z,1.50
2022-08-09T12:56:12.333Z,1.40
2022-08-09T12:57:41.441Z,1.70
2022-08-09T13:00:26.689Z,1.67
2022-08-09T13:02:59.820Z,1.33
2022-08-09T13:05:51.699Z,1.50
2022-08-09T13:08:40.062Z,1.27
2022-08-09T13:11:22.790Z,1.87
2022-08-09T13:14:40.807Z,1.63
2022-08-09T13:16:46.217Z,1.57
2022-08-09T13:20:08.483Z,1.90
2022-08-09T13:22:37.279Z,2.33
2022-08-09T13:25:15.052Z,1.20
2022-08-09T13:27:48.422Z,1.50
2022-08-09T13:30:51.591Z,1.20
2022-08-09T13:33:12.152Z,1.10
2022-08-09T13:36:37.552Z,1.00
2022-08-09T13:38:55.465Z,1.40
2022-08-09T13:41:58.090Z,1.00
2022-08-09T13:44:16.504Z,1.23
2022-08-09T13:47:26.757Z,1.40
2022-08-09T13:49:37.891Z,1.67
2022-08-09T13:52:09.328Z,3.03
2022-08-09T13:54:41.749Z,2.07
2022-08-09T13:57:36.507Z,1.70
2022-08-09T14:00:12.121Z,1.37
2022-08-09T14:03:04.237Z,1.70
2022-08-09T14:05:58.267Z,2.80
2022-08-09T14:08:18.543Z,1.80
2022-08-09T14:10:50.543Z,2.30
2022-08-09T14:13:27.658Z,1.80
2022-08-09T14:16:09.380Z,1.80
2022-08-09T14:18:43.206Z,1.50
2022-08-09T14:21:17.608Z,1.73
2022-08-09T14:23:54.178Z,1.60
2022-08-09T14:26:32.027Z,1.93
2022-08-09T14:29:07.838Z,1.87
2022-08-09T14:31:53.733Z,1.50
2022-08-09T14:34:27.479Z,1.83
2022-08-09T14:37:01.729Z,1.53
2022-08-09T14:39:45.205Z,1.70
2022-08-09T14:42:30.752Z,1.70
2022-08-09T14:45:14.818Z,2.10
2022-08-09T14:47:56.800Z,1.70
2022-08-09T14:50:25.099Z,1.67
2022-08-09T14:52:52.018Z,1.70
2022-08-09T14:55:20.325Z,1.87
2022-08-09T14:57:48.737Z,1.50
2022-08-09T15:00:16.509Z,2.17
2022-08-09T15:02:47.578Z,1.30
2022-08-09T15:05:19.370Z,1.37
2022-08-09T15:07:56.650Z,1.30
2022-08-09T15:10:25.742Z,1.30
2022-08-09T15:12:53.883Z,1.40
2022-08-09T15:15:21.752Z,1.10
2022-08-09T15:17:52.491Z,0.90
2022-08-09T15:21:58.054Z,1.23
2022-08-09T15:24:01.946Z,1.47
2022-08-09T15:25:58.457Z,1.60
2022-08-09T15:28:27.669Z,1.33
2022-08-09T15:31:09.959Z,1.00
2022-08-09T15:34:16.267Z,1.20
2022-08-09T15:36:28.779Z,1.73
2022-08-09T15:39:00.803Z,0.90
2022-08-09T15:41:31.308Z,1.30
2022-08-09T15:44:03.769Z,1.47
2022-08-09T15:46:34.423Z,1.10
2022-08-09T15:49:21.039Z,1.20
2022-08-09T15:52:04.697Z,1.00
2022-08-09T15:54:49.010Z,1.43
2022-08-09T15:57:35.083Z,1.67
2022-08-09T16:00:14.601Z,1.77
2022-08-09T16:02:53.988Z,1.87
2022-08-09T16:05:23.520Z,1.63
2022-08-09T16:07:51.039Z,1.50
2022-08-09T16:10:54.983Z,1.53
2022-08-09T16:13:20.643Z,1.13
2022-08-09T16:16:09.803Z,1.60
2022-08-09T16:18:44.693Z,1.57
2022-08-09T16:21:12.529Z,1.30
2022-08-09T16:23:54.889Z,1.57
2022-08-09T16:26:34.804Z,1.20
2022-08-09T16:29:11.650Z,1.60
2022-08-09T16:32:18.318Z,1.20
2022-08-09T16:34:55.281Z,1.63
2022-08-09T16:37:55.355Z,1.20
2022-08-09T16:40:11.077Z,1.10
2022-08-09T16:42:38.846Z,1.30
2022-08-09T16:45:14.347Z,1.70
2022-08-09T16:48:39.302Z,1.40
2022-08-09T16:50:33.835Z,1.47
2022-08-09T16:53:02.441Z,1.10
2022-08-09T16:55:31.393Z,1.37
2022-08-09T16:58:17.861Z,1.30
2022-08-09T17:00:46.673Z,2.07
2022-08-09T17:03:21.509Z,1.50
2022-08-09T17:06:08.686Z,2.50
2022-08-09T17:08:59.909Z,1.50
2022-08-09T17:11:40.449Z,1.77
2022-08-09T17:14:26.344Z,1.63
2022-08-09T17:17:02.276Z,1.80
2022-08-09T17:20:05.980Z,1.60
2022-08-09T17:22:28.901Z,1.80
2022-08-09T17:25:04.830Z,1.60
2022-08-09T17:27:38.598Z,1.30
2022-08-09T17:30:12.725Z,1.67
2022-08-09T17:32:44.337Z,1.80
2022-08-09T17:35:14.247Z,2.20
2022-08-09T17:38:14.574Z,1.40
2022-08-09T17:40:33.209Z,1.30
2022-08-09T17:43:10.930Z,1.40
2022-08-09T17:46:04.389Z,1.50
2022-08-09T17:48:51.885Z,1.87
2022-08-09T17:51:20.387Z,2.40
2022-08-09T17:53:52.771Z,2.00
2022-08-09T17:56:29.143Z,1.67
2022-08-09T17:59:03.279Z,1.93
2022-08-09T18:01:40.968Z,2.20
2022-08-09T18:04:23.453Z,2.30
2022-08-09T18:06:54.753Z,2.30
2022-08-09T18:09:23.170Z,2.20
2022-08-09T18:12:15.515Z,2.60
2022-08-09T18:14:49.759Z,2.30
2022-08-09T18:17:27.623Z,4.00
2022-08-09T18:20:55.323Z,3.30
2022-08-09T18:22:56.627Z,3.60
2022-08-09T18:25:50.783Z,3.50
2022-08-09T18:28:21.675Z,2.10
2022-08-09T18:30:58.744Z,2.63
2022-08-09T18:33:26.014Z,2.60
2022-08-09T18:36:00.144Z,1.93
2022-08-09T18:38:28.063Z,2.30
2022-08-09T18:40:55.710Z,2.60
2022-08-09T18:43:23.617Z,2.20
2022-08-09T18:46:51.090Z,2.60
2022-08-09T18:48:37.915Z,2.30
2022-08-09T18:51:10.079Z,2.23
2022-08-09T18:54:01.003Z,3.00
2022-08-09T18:56:27.130Z,3.13
2022-08-09T18:59:01.083Z,2.67
2022-08-09T19:01:28.493Z,2.40
2022-08-09T19:04:10.571Z,2.37
2022-08-09T19:06:38.467Z,2.20
2022-08-09T19:09:07.209Z,5.00
2022-08-09T19:11:37.663Z,4.40
2022-08-09T19:14:07.025Z,3.57
2022-08-09T19:16:36.573Z,2.80
2022-08-09T19:19:23.579Z,3.33
2022-08-09T19:22:05.064Z,5.00
2022-08-09T19:24:38.332Z,7.30
2022-08-09T19:27:22.519Z,3.53
2022-08-09T19:30:22.544Z,2.90
2022-08-09T19:32:37.304Z,2.70
2022-08-09T19:35:05.524Z,2.40
2022-08-09T19:37:54.034Z,2.90
2022-08-09T19:40:21.256Z,7.70
2022-08-09T19:42:49.755Z,3.20
2022-08-09T19:45:17.725Z,3.50
2022-08-09T19:47:45.675Z,7.13
2022-08-09T19:50:48.881Z,3.50
2022-08-09T19:53:04.284Z,3.43
2022-08-09T19:56:02.878Z,4.10
2022-08-09T19:58:29.804Z,4.13
2022-08-09T20:00:58.035Z,3.10
2022-08-09T20:03:25.391Z,3.23
2022-08-09T20:06:22.304Z,2.73
2022-08-09T20:08:56.833Z,3.80
2022-08-09T20:11:43.064Z,7.00
2022-08-09T20:14:16.390Z,3.43
2022-08-09T20:16:54.608Z,3.40
2022-08-09T20:19:48.599Z,3.17
2022-08-09T20:22:10.256Z,4.10
2022-08-09T20:24:42.380Z,3.37
2022-08-09T20:27:11.579Z,3.30
2022-08-09T20:29:41.258Z,3.30
2022-08-09T20:32:29.868Z,3.03
2022-08-09T20:34:58.528Z,3.23
2022-08-09T20:37:25.731Z,3.00
2022-08-09T20:40:18.879Z,2.70
2022-08-09T20:42:59.553Z,3.70
2022-08-09T20:46:00.076Z,4.80
2022-08-09T20:48:21.223Z,3.50
2022-08-09T20:50:51.082Z,3.20
2022-08-09T20:53:37.594Z,2.73
2022-08-09T20:56:08.726Z,3.37
2022-08-09T20:58:36.354Z,2.47
2022-08-09T21:01:33.487Z,3.40
2022-08-09T21:05:49.360Z,2.50
2022-08-09T21:06:42.959Z,3.73
2022-08-09T21:09:13.831Z,2.70
2022-08-09T21:14:31.107Z,3.23
2022-08-09T21:16:59.384Z,2.57
2022-08-09T21:20:17.397Z,3.40
2022-08-09T21:22:36.286Z,3.20
2022-08-09T21:25:20.695Z,2.07
2022-08-09T21:27:52.366Z,2.03
2022-08-09T21:30:22.274Z,2.53
2022-08-09T21:32:50.915Z,2.73
2022-08-09T21:35:18.288Z,2.70
2022-08-09T21:37:59.557Z,2.50
2022-08-09T21:40:30.583Z,3.20
2022-08-09T21:43:06.045Z,3.30
2022-08-09T21:45:38.849Z,2.90
2022-08-09T21:48:07.096Z,3.07
2022-08-09T21:50:38.538Z,2.73
2022-08-09T21:53:24.031Z,2.43
2022-08-09T21:55:54.739Z,2.93
2022-08-09T21:58:30.971Z,2.57
2022-08-09T22:00:58.515Z,2.83
2022-08-09T22:03:26.273Z,2.90
2022-08-09T22:05:54.980Z,3.00
2022-08-09T22:08:25.851Z,4.37
2022-08-09T22:11:49.055Z,4.10
2022-08-09T22:13:45.200Z,4.87
2022-08-09T22:16:12.265Z,3.70
2022-08-09T22:18:54.418Z,3.73
2022-08-09T22:21:25.154Z,3.90
2022-08-09T22:24:16.961Z,4.70
2022-08-09T22:26:51.670Z,4.67
2022-08-09T22:29:24.106Z,3.93
2022-08-09T22:31:57.434Z,3.80
2022-08-09T22:34:28.723Z,3.57
2022-08-09T22:36:58.047Z,3.30
2022-08-09T22:39:57.985Z,4.17
2022-08-09T22:42:21.907Z,3.30
2022-08-09T22:48:04.903Z,3.30
2022-08-09T22:48:13.372Z,3.70
2022-08-09T22:50:31.361Z,3.80
2022-08-09T22:52:59.407Z,2.63
2022-08-09T22:56:06.220Z,3.40
2022-08-09T22:58:30.575Z,3.03
2022-08-09T23:01:03.992Z,3.23
2022-08-09T23:04:03.596Z,3.27
2022-08-09T23:06:35.158Z,3.03
2022-08-09T23:09:05.533Z,3.20
2022-08-09T23:11:32.622Z,3.67
2022-08-09T23:13:59.746Z,3.20
2022-08-09T23:16:26.762Z,3.60
2022-08-09T23:18:53.966Z,4.20
2022-08-09T23:21:24.542Z,3.90
2022-08-09T23:24:05.691Z,3.47
2022-08-09T23:26:35.980Z,4.03
2022-08-09T23:29:04.330Z,3.77
2022-08-09T23:31:31.528Z,3.50
2022-08-09T23:33:58.527Z,3.23
2022-08-09T23:36:25.597Z,3.50
2022-08-09T23:38:52.585Z,3.77
2022-08-09T23:41:28.628Z,3.40
2022-08-09T23:43:58.049Z,3.30
2022-08-09T23:46:25.308Z,4.30
2022-08-09T23:48:52.311Z,3.20
2022-08-09T23:51:19.302Z,3.03
2022-08-09T23:53:47.434Z,2.97
2022-08-09T23:56:18.202Z,3.40
2022-08-09T23:59:04.916Z,2.97
